Time;durP1;ratioP1;P1;durP2;ratioP2;P2;SDS_P1;SDS_P2;PMS_P1;PMS_P2;Temp;Humidity;BMP_temperature;BMP_pressure;BME280_temperature;BME280_humidity;BME280_pressure;Samples;Min_cycle;Max_cycle;Signal;HPM_P1;HPM_P2
2022/07/08 00:00:10;;;;;;;3.83;1.40;;;11.60;99.90;;;;;;5006518;28;20107;-70
2022/07/08 00:02:37;;;;;;;2.78;1.65;;;11.70;99.90;;;;;;5007106;28;20022;-66
2022/07/08 00:05:04;;;;;;;3.30;1.25;;;11.70;99.90;;;;;;5006837;28;20022;-67
2022/07/08 00:07:32;;;;;;;6.55;2.50;;;11.80;99.90;;;;;;5006886;28;20049;-66
2022/07/08 00:09:59;;;;;;;4.20;1.63;;;11.80;99.90;;;;;;5006754;28;20022;-66
2022/07/08 00:12:26;;;;;;;2.55;1.50;;;11.80;99.90;;;;;;5006798;28;20018;-72
2022/07/08 00:14:54;;;;;;;4.43;1.25;;;11.90;99.90;;;;;;5007181;28;20148;-62
2022/07/08 00:17:21;;;;;;;4.68;1.40;;;12.00;99.90;;;;;;5006463;28;20026;-74
2022/07/08 00:19:48;;;;;;;4.07;1.77;;;12.10;99.90;;;;;;5006227;28;20494;-67
2022/07/08 00:22:15;;;;;;;3.45;1.20;;;12.10;99.90;;;;;;5006911;28;20026;-66
2022/07/08 00:24:43;;;;;;;3.00;1.30;;;12.10;99.90;;;;;;5007103;28;20141;-72
2022/07/08 00:27:10;;;;;;;3.17;1.40;;;12.30;99.70;;;;;;5007061;28;20566;-69
2022/07/08 00:29:37;;;;;;;2.10;1.27;;;12.30;99.20;;;;;;5006934;28;20423;-66
2022/07/08 00:32:05;;;;;;;2.05;1.17;;;12.40;99.70;;;;;;5006143;28;20030;-66
2022/07/08 00:34:33;;;;;;;2.58;1.05;;;12.40;99.10;;;;;;5005081;28;20030;-67
2022/07/08 00:37:00;;;;;;;4.07;1.48;;;12.50;98.70;;;;;;5006947;28;20053;-71
2022/07/08 00:39:28;;;;;;;2.03;0.80;;;12.60;98.30;;;;;;5006325;28;20112;-65
2022/07/08 00:41:55;;;;;;;3.67;1.00;;;12.70;98.50;;;;;;5006370;28;20105;-65
2022/07/08 00:44:22;;;;;;;2.35;1.25;;;12.70;98.00;;;;;;5005937;28;20018;-69
2022/07/08 00:46:49;;;;;;;3.75;1.15;;;12.70;97.90;;;;;;5005760;28;20038;-66
2022/07/08 00:49:17;;;;;;;2.55;1.00;;;12.80;98.00;;;;;;5002646;28;20026;-66
2022/07/08 00:51:46;;;;;;;3.35;1.20;;;12.80;98.00;;;;;;5005065;28;20045;-70
2022/07/08 00:54:16;;;;;;;3.88;1.35;;;12.90;98.10;;;;;;5003805;28;20034;-67
2022/07/08 00:56:43;;;;;;;2.05;0.80;;;13.00;97.60;;;;;;5004469;28;20041;-66
2022/07/08 00:59:11;;;;;;;2.08;1.73;;;13.10;97.50;;;;;;5003969;28;20034;-70
2022/07/08 01:01:38;;;;;;;3.25;1.00;;;13.10;97.10;;;;;;5004119;28;20022;-65
2022/07/08 01:04:06;;;;;;;1.42;0.82;;;13.20;97.30;;;;;;5004201;28;20076;-67
2022/07/08 01:06:34;;;;;;;4.18;1.10;;;13.30;96.70;;;;;;5004272;28;20029;-70
2022/07/08 01:09:02;;;;;;;2.13;0.80;;;13.40;96.90;;;;;;5003903;28;20050;-66
2022/07/08 01:11:29;;;;;;;4.32;0.77;;;13.50;96.30;;;;;;5003652;28;20821;-68
2022/07/08 01:13:57;;;;;;;1.45;0.65;;;13.60;96.30;;;;;;5004681;28;20022;-67
2022/07/08 01:16:24;;;;;;;3.83;0.70;;;13.60;96.20;;;;;;5004692;28;20477;-69
2022/07/08 01:18:52;;;;;;;3.70;0.90;;;13.80;95.90;;;;;;5004451;28;20441;-66
2022/07/08 01:21:19;;;;;;;3.47;0.95;;;13.80;95.10;;;;;;5003859;28;20038;-66
2022/07/08 01:23:47;;;;;;;2.13;1.00;;;14.00;95.00;;;;;;5000844;28;20088;-66
2022/07/08 01:26:14;;;;;;;1.10;0.77;;;14.00;94.80;;;;;;5003143;28;20104;-68
2022/07/08 01:28:43;;;;;;;4.40;0.80;;;14.10;94.70;;;;;;5004440;28;20439;-75
2022/07/08 01:31:10;;;;;;;0.95;0.60;;;14.10;94.90;;;;;;5003786;28;20033;-70
2022/07/08 01:33:39;;;;;;;3.10;0.60;;;14.20;94.90;;;;;;5003872;28;20022;-66
2022/07/08 01:36:07;;;;;;;2.50;1.00;;;14.30;95.00;;;;;;5003678;28;20697;-74
2022/07/08 01:38:34;;;;;;;4.82;0.70;;;14.40;95.00;;;;;;5003569;28;20045;-72
2022/07/08 01:41:02;;;;;;;1.80;0.75;;;14.40;94.90;;;;;;5003936;28;20536;-70
2022/07/08 01:43:30;;;;;;;3.80;0.90;;;14.50;95.00;;;;;;5003246;28;20612;-70
2022/07/08 01:45:57;;;;;;;2.38;0.95;;;14.60;94.60;;;;;;5004305;28;20030;-70
2022/07/08 01:48:25;;;;;;;2.40;0.85;;;14.70;94.60;;;;;;5005535;28;20021;-76
2022/07/08 01:50:53;;;;;;;2.45;0.80;;;14.80;94.30;;;;;;5036592;28;20041;-70
2022/07/08 01:53:20;;;;;;;3.83;0.90;;;14.90;94.90;;;;;;5003303;28;20036;-75
2022/07/08 01:55:48;;;;;;;1.77;0.63;;;15.00;94.20;;;;;;5004417;28;20132;-70
2022/07/08 01:58:16;;;;;;;1.63;0.75;;;15.10;93.90;;;;;;5003907;28;20165;-74
2022/07/08 02:00:46;;;;;;;1.92;0.65;;;15.30;94.30;;;;;;5004127;28;20045;-69
2022/07/08 02:03:13;;;;;;;1.20;0.70;;;15.40;94.10;;;;;;5003835;28;20017;-67
2022/07/08 02:05:40;;;;;;;1.65;0.60;;;15.70;94.10;;;;;;5003250;28;20026;-68
2022/07/08 02:08:07;;;;;;;2.55;0.68;;;15.80;93.30;;;;;;5003375;28;20463;-68
2022/07/08 02:13:20;;;;;;;2.10;0.60;;;15.80;92.80;;;;;;5003300;28;20559;-72
2022/07/08 02:15:48;;;;;;;2.38;1.02;;;15.90;93.00;;;;;;5004532;28;20113;-69
2022/07/08 02:18:15;;;;;;;2.17;0.70;;;15.90;92.80;;;;;;5005014;28;20486;-75
2022/07/08 02:20:42;;;;;;;1.75;0.70;;;15.90;92.70;;;;;;5005204;28;20513;-75
2022/07/08 02:23:09;;;;;;;4.10;0.88;;;15.80;92.50;;;;;;5004257;28;20026;-72
2022/07/08 02:25:38;;;;;;;1.10;0.50;;;15.80;92.60;;;;;;5004348;28;20025;-65
2022/07/08 02:28:05;;;;;;;3.08;1.08;;;15.80;92.20;;;;;;5005319;28;20085;-71
2022/07/08 02:30:32;;;;;;;1.92;0.80;;;15.60;92.00;;;;;;5004258;28;20014;-72
2022/07/08 02:33:00;;;;;;;2.58;0.80;;;15.70;91.80;;;;;;5004357;28;20464;-75
2022/07/08 02:35:27;;;;;;;1.88;0.60;;;15.70;92.50;;;;;;5003449;28;20080;-73
2022/07/08 02:37:54;;;;;;;3.00;0.77;;;15.90;92.10;;;;;;5003802;28;20036;-73
2022/07/08 02:40:22;;;;;;;2.38;0.70;;;16.10;91.60;;;;;;5004304;28;20032;-72
2022/07/08 02:42:50;;;;;;;1.58;1.00;;;16.20;91.20;;;;;;5006548;28;20053;-69
2022/07/08 02:45:17;;;;;;;1.30;0.65;;;16.40;91.30;;;;;;5008208;28;20049;-70
2022/07/08 02:47:44;;;;;;;1.77;0.82;;;16.40;90.90;;;;;;5007040;28;20026;-71
2022/07/08 02:50:12;;;;;;;2.53;0.98;;;16.50;90.90;;;;;;5007719;28;20038;-65
2022/07/08 02:52:39;;;;;;;1.23;0.55;;;16.70;90.50;;;;;;5007157;28;20044;-67
2022/07/08 02:55:07;;;;;;;1.48;0.57;;;16.90;90.00;;;;;;5007145;28;20022;-70
2022/07/08 02:57:35;;;;;;;0.50;0.50;;;16.90;90.00;;;;;;5006692;28;20692;-70
2022/07/08 03:00:03;;;;;;;1.05;0.70;;;17.30;89.80;;;;;;5008359;28;20442;-73
2022/07/08 03:02:30;;;;;;;1.48;0.52;;;17.60;87.90;;;;;;5007178;28;20371;-73
2022/07/08 03:04:58;;;;;;;6.72;2.35;;;17.60;88.20;;;;;;5007333;28;20494;-68
2022/07/08 03:07:25;;;;;;;1.13;0.60;;;17.60;86.80;;;;;;5007611;28;20466;-70
2022/07/08 03:09:53;;;;;;;1.02;0.63;;;17.60;87.40;;;;;;5007804;28;20022;-75
2022/07/08 03:12:20;;;;;;;1.55;0.70;;;17.60;86.70;;;;;;5006893;28;20017;-76
2022/07/08 03:14:47;;;;;;;1.00;0.65;;;17.80;86.60;;;;;;5007087;28;20014;-74
2022/07/08 03:17:15;;;;;;;1.90;0.52;;;18.10;84.30;;;;;;5007374;28;20091;-66
2022/07/08 03:19:42;;;;;;;0.55;0.55;;;18.20;84.60;;;;;;5007882;28;20046;-72
2022/07/08 03:22:09;;;;;;;0.65;0.65;;;18.80;84.60;;;;;;5006859;28;20018;-75
2022/07/08 03:24:36;;;;;;;1.92;0.88;;;19.30;83.40;;;;;;5007591;28;20443;-71
2022/07/08 03:27:04;;;;;;;0.40;0.40;;;19.40;82.00;;;;;;5006964;28;20390;-72
2022/07/08 03:29:31;;;;;;;0.60;0.40;;;19.10;80.40;;;;;;5007010;28;20116;-71
2022/07/08 03:31:58;;;;;;;0.52;0.40;;;19.00;79.90;;;;;;5006892;28;20022;-74
2022/07/08 03:34:26;;;;;;;0.70;0.40;;;18.90;80.50;;;;;;5007577;28;20402;-67
2022/07/08 03:36:53;;;;;;;1.08;0.50;;;18.90;79.80;;;;;;5006954;28;20026;-73
2022/07/08 03:39:20;;;;;;;0.63;0.43;;;19.10;80.80;;;;;;5006798;28;20034;-73
2022/07/08 03:41:49;;;;;;;0.93;0.57;;;19.50;78.90;;;;;;5006625;28;20018;-76
2022/07/08 03:44:16;;;;;;;1.52;0.70;;;19.90;78.60;;;;;;5006611;28;20029;-66
2022/07/08 03:46:43;;;;;;;0.50;0.40;;;20.10;77.00;;;;;;5004960;28;20022;-70
2022/07/08 03:49:11;;;;;;;0.93;0.40;;;20.30;77.10;;;;;;5004105;28;20083;-64
2022/07/08 03:51:38;;;;;;;1.27;0.40;;;20.20;76.60;;;;;;5003548;28;20022;-71
2022/07/08 03:54:06;;;;;;;0.32;0.32;;;20.30;76.10;;;;;;5000579;28;20101;-67
2022/07/08 03:56:33;;;;;;;0.70;0.52;;;20.20;76.10;;;;;;5004645;28;20092;-70
2022/07/08 03:59:00;;;;;;;0.90;0.40;;;20.20;76.50;;;;;;5004465;28;20029;-69
2022/07/08 04:01:27;;;;;;;2.38;0.45;;;20.20;75.10;;;;;;5004339;28;20022;-67
2022/07/08 04:03:55;;;;;;;3.45;0.73;;;20.10;74.90;;;;;;5004976;28;20105;-67
2022/07/08 04:06:22;;;;;;;0.45;0.45;;;20.00;75.60;;;;;;5005348;28;20112;-67
2022/07/08 04:08:49;;;;;;;0.85;0.60;;;20.20;74.30;;;;;;5005602;28;20026;-76
2022/07/08 04:11:17;;;;;;;0.77;0.43;;;20.10;73.80;;;;;;5006619;28;20033;-69
2022/07/08 04:13:44;;;;;;;2.17;0.60;;;19.80;75.20;;;;;;5006188;28;20543;-76
2022/07/08 04:16:15;;;;;;;0.80;0.50;;;19.50;75.00;;;;;;5006306;28;20026;-70
2022/07/08 04:18:42;;;;;;;2.25;0.70;;;19.00;76.00;;;;;;5005644;28;20034;-67
2022/07/08 04:21:10;;;;;;;0.50;0.40;;;18.40;77.50;;;;;;5006413;28;20629;-71
2022/07/08 04:23:38;;;;;;;0.40;0.40;;;17.80;78.70;;;;;;5006799;28;20036;-66
2022/07/08 04:26:05;;;;;;;0.85;0.57;;;17.20;79.70;;;;;;5006790;28;20105;-66
2022/07/08 04:28:36;;;;;;;0.70;0.50;;;16.80;81.70;;;;;;5006444;28;20033;-65
2022/07/08 04:31:03;;;;;;;1.20;0.50;;;16.50;82.30;;;;;;5005915;28;20053;-66
2022/07/08 04:33:30;;;;;;;1.15;0.50;;;16.30;82.20;;;;;;5005845;28;20045;-70
2022/07/08 04:35:58;;;;;;;0.93;0.52;;;16.20;82.50;;;;;;5006395;28;20038;-69
2022/07/08 04:38:25;;;;;;;1.15;0.60;;;16.30;82.10;;;;;;5005674;28;20048;-68
2022/07/08 04:40:52;;;;;;;0.77;0.50;;;16.10;82.10;;;;;;5006250;28;20065;-73
2022/07/08 04:43:20;;;;;;;0.50;0.50;;;16.00;80.90;;;;;;5005340;28;20455;-71
2022/07/08 04:45:47;;;;;;;0.63;0.50;;;15.90;81.30;;;;;;5006298;28;20471;-66
2022/07/08 04:48:14;;;;;;;1.85;0.60;;;15.90;81.70;;;;;;5005426;28;20030;-69
2022/07/08 04:50:41;;;;;;;0.50;0.50;;;15.90;82.30;;;;;;5006371;28;20499;-70
2022/07/08 04:53:09;;;;;;;0.75;0.50;;;15.80;83.10;;;;;;5005741;28;20026;-76
2022/07/08 04:55:36;;;;;;;1.70;0.50;;;15.70;83.70;;;;;;5006042;28;20042;-70
2022/07/08 04:58:05;;;;;;;1.05;0.60;;;15.80;82.60;;;;;;5004955;28;20029;-64
2022/07/08 05:00:33;;;;;;;0.50;0.43;;;15.70;83.40;;;;;;5005742;28;20025;-67
2022/07/08 05:03:01;;;;;;;0.88;0.45;;;15.80;82.60;;;;;;5005787;28;20093;-64
2022/07/08 05:05:30;;;;;;;0.40;0.40;;;15.70;82.00;;;;;;5005669;28;20034;-72
2022/07/08 05:08:00;;;;;;;0.75;0.60;;;15.70;82.00;;;;;;5005511;28;20033;-67
2022/07/08 05:10:29;;;;;;;1.83;0.95;;;15.70;83.00;;;;;;5005572;28;20030;-74
2022/07/08 05:12:57;;;;;;;1.55;0.50;;;15.80;83.50;;;;;;5005654;28;20382;-73
2022/07/08 05:15:25;;;;;;;4.90;0.50;;;15.90;83.50;;;;;;5005101;28;20414;-75
2022/07/08 05:17:53;;;;;;;1.35;0.47;;;16.00;82.70;;;;;;5005139;28;20014;-70
2022/07/08 05:20:20;;;;;;;1.08;0.40;;;15.90;82.80;;;;;;5005286;28;20038;-69
2022/07/08 05:22:48;;;;;;;0.32;0.32;;;15.80;83.70;;;;;;5005577;28;20014;-68
2022/07/08 05:25:16;;;;;;;1.27;0.55;;;15.80;83.30;;;;;;5005549;28;20038;-68
2022/07/08 05:27:43;;;;;;;0.60;0.50;;;15.70;83.30;;;;;;5005061;28;20431;-75
2022/07/08 05:30:12;;;;;;;0.82;0.47;;;15.70;83.00;;;;;;5004581;28;20359;-67
2022/07/08 05:32:40;;;;;;;0.60;0.50;;;15.70;82.80;;;;;;5004743;28;20014;-76
2022/07/08 05:35:08;;;;;;;0.57;0.57;;;15.80;84.60;;;;;;5004575;28;20531;-69
2022/07/08 05:37:38;;;;;;;1.27;0.60;;;15.90;82.60;;;;;;5005474;28;20021;-67
2022/07/08 05:40:09;;;;;;;1.30;0.80;;;16.10;83.00;;;;;;5005398;28;20542;-64
2022/07/08 05:42:37;;;;;;;1.00;0.52;;;16.30;83.10;;;;;;5004121;28;20465;-66
2022/07/08 05:45:15;;;;;;;0.77;0.57;;;16.30;81.70;;;;;;5004781;28;20038;-71
2022/07/08 05:47:43;;;;;;;1.55;0.70;;;16.20;81.10;;;;;;5005119;28;20025;-68
2022/07/08 05:50:11;;;;;;;1.73;0.50;;;16.00;81.10;;;;;;5005182;28;20021;-69
2022/07/08 05:52:38;;;;;;;1.52;0.80;;;15.90;81.30;;;;;;5004697;28;20018;-65
2022/07/08 05:55:06;;;;;;;2.15;0.43;;;16.00;82.90;;;;;;5005335;28;20109;-64
2022/07/08 05:57:33;;;;;;;0.75;0.50;;;16.00;82.60;;;;;;5005719;28;20030;-73
2022/07/08 06:00:01;;;;;;;1.27;0.60;;;16.00;82.10;;;;;;5004998;28;20029;-69
2022/07/08 06:02:28;;;;;;;1.83;0.60;;;15.90;82.00;;;;;;5000484;28;20018;-79
2022/07/08 06:04:56;;;;;;;2.15;0.70;;;16.00;83.20;;;;;;5004066;28;20118;-72
2022/07/08 06:07:23;;;;;;;1.83;0.60;;;16.10;82.60;;;;;;5004416;28;20022;-75
2022/07/08 06:09:50;;;;;;;0.88;0.50;;;16.10;82.30;;;;;;5004653;28;20025;-76
2022/07/08 06:12:18;;;;;;;1.75;0.80;;;16.20;81.80;;;;;;5004132;28;20471;-66
2022/07/08 06:14:45;;;;;;;1.85;0.70;;;16.20;82.10;;;;;;5003375;28;20032;-65
2022/07/08 06:17:13;;;;;;;1.70;0.68;;;16.10;83.50;;;;;;5003562;28;20136;-68
2022/07/08 06:19:41;;;;;;;1.85;0.55;;;16.20;82.70;;;;;;5003706;28;20137;-64
2022/07/08 06:22:09;;;;;;;1.13;0.57;;;16.20;82.60;;;;;;5004358;28;20581;-67
2022/07/08 06:24:36;;;;;;;1.92;0.90;;;16.20;82.70;;;;;;5004456;28;20041;-70
2022/07/08 06:27:04;;;;;;;3.75;0.80;;;16.00;83.90;;;;;;5003292;28;20029;-73
2022/07/08 06:29:31;;;;;;;1.85;0.80;;;15.80;84.70;;;;;;5002823;28;20471;-65
2022/07/08 06:31:59;;;;;;;1.02;0.50;;;15.60;84.40;;;;;;5002051;28;20025;-68
2022/07/08 06:34:27;;;;;;;3.30;1.35;;;15.30;84.20;;;;;;5003406;28;20054;-73
2022/07/08 06:36:54;;;;;;;2.17;0.90;;;15.00;84.90;;;;;;5000900;28;20497;-68
2022/07/08 06:39:21;;;;;;;4.43;1.30;;;14.70;86.00;;;;;;5002726;28;20048;-69
2022/07/08 06:41:49;;;;;;;3.38;1.10;;;14.50;86.30;;;;;;5002896;28;20041;-68
2022/07/08 06:44:16;;;;;;;1.23;0.70;;;14.30;87.10;;;;;;5003405;28;20104;-66
2022/07/08 06:46:43;;;;;;;4.63;1.80;;;14.20;87.60;;;;;;5005162;28;20022;-66
2022/07/08 06:49:10;;;;;;;4.15;1.10;;;14.00;87.60;;;;;;5004005;28;20029;-65
2022/07/08 06:51:38;;;;;;;3.42;0.93;;;13.90;88.00;;;;;;5002088;28;20033;-67
2022/07/08 06:56:51;;;;;;;3.78;1.52;;;13.60;89.70;;;;;;5001122;28;20056;-67
2022/07/08 06:59:18;;;;;;;1.50;0.88;;;13.50;89.10;;;;;;5001829;28;20038;-72
2022/07/08 07:01:45;;;;;;;2.72;1.05;;;13.40;90.00;;;;;;4988068;28;20034;-66
2022/07/08 07:04:12;;;;;;;2.47;1.33;;;13.40;90.00;;;;;;4996050;28;20034;-63
2022/07/08 07:06:40;;;;;;;3.58;1.45;;;13.30;90.30;;;;;;5006027;28;20080;-68
2022/07/08 07:09:07;;;;;;;2.70;0.80;;;13.20;90.10;;;;;;5004006;28;20033;-68
2022/07/08 07:11:35;;;;;;;3.00;0.90;;;13.20;90.30;;;;;;5003636;28;20195;-67
2022/07/08 07:14:02;;;;;;;6.35;1.60;;;13.10;90.30;;;;;;5020044;28;20532;-70
2022/07/08 07:16:30;;;;;;;1.73;0.80;;;13.00;90.70;;;;;;5010250;28;20041;-69
2022/07/08 07:18:57;;;;;;;1.45;0.60;;;13.00;90.90;;;;;;5001615;28;20220;-65
2022/07/08 07:21:24;;;;;;;1.98;0.93;;;12.90;90.80;;;;;;5001632;28;20035;-67
2022/07/08 07:23:52;;;;;;;1.40;1.08;;;12.90;91.00;;;;;;5001763;28;20032;-69
2022/07/08 07:26:19;;;;;;;1.85;0.90;;;12.80;91.40;;;;;;5006177;28;20378;-68
2022/07/08 07:28:47;;;;;;;1.73;0.77;;;12.80;91.00;;;;;;5001450;28;20080;-73
2022/07/08 07:31:14;;;;;;;2.28;0.90;;;12.70;91.10;;;;;;5007568;28;20021;-68
2022/07/08 07:33:41;;;;;;;1.60;1.15;;;12.80;91.40;;;;;;5018424;28;20478;-65
2022/07/08 07:36:09;;;;;;;2.65;1.30;;;12.70;91.70;;;;;;5021700;28;20022;-67
2022/07/08 07:38:36;;;;;;;2.30;1.08;;;12.70;91.60;;;;;;5007555;28;20026;-69
2022/07/08 07:41:03;;;;;;;1.50;0.75;;;12.70;91.50;;;;;;5007281;28;20029;-72
2022/07/08 07:43:31;;;;;;;2.65;0.93;;;12.60;91.70;;;;;;5006720;28;20025;-68
2022/07/08 07:45:58;;;;;;;2.05;1.00;;;12.60;91.80;;;;;;5007403;28;20070;-66
2022/07/08 07:48:26;;;;;;;3.17;1.00;;;12.50;91.80;;;;;;5007301;28;20036;-66
2022/07/08 07:50:53;;;;;;;2.28;1.30;;;12.50;92.00;;;;;;5007111;28;20018;-72
2022/07/08 07:53:21;;;;;;;2.75;1.15;;;12.50;92.20;;;;;;5012630;28;20030;-64
2022/07/08 07:55:48;;;;;;;2.70;1.30;;;12.40;92.10;;;;;;5020064;28;20042;-65
2022/07/08 07:58:15;;;;;;;2.08;1.13;;;12.40;92.40;;;;;;5006859;28;20466;-69
2022/07/08 08:00:43;;;;;;;3.03;1.55;;;12.30;92.30;;;;;;5007071;28;20030;-65
2022/07/08 08:03:10;;;;;;;2.28;1.67;;;12.30;92.40;;;;;;5007004;28;20033;-64
2022/07/08 08:05:39;;;;;;;2.67;1.33;;;12.30;92.60;;;;;;5007180;28;20033;-68
2022/07/08 08:08:06;;;;;;;2.58;1.10;;;12.20;92.60;;;;;;5007000;28;20672;-65
2022/07/08 08:10:34;;;;;;;2.78;1.10;;;12.20;92.80;;;;;;5006258;28;20026;-69
2022/07/08 08:13:02;;;;;;;4.95;3.45;;;12.30;92.80;;;;;;5006362;28;20029;-68
2022/07/08 08:15:32;;;;;;;2.78;1.90;;;12.30;92.90;;;;;;5008356;28;20041;-67
2022/07/08 08:18:00;;;;;;;2.85;1.42;;;12.20;93.00;;;;;;5037430;28;20033;-68
2022/07/08 08:20:29;;;;;;;2.83;1.20;;;12.20;93.00;;;;;;5006968;28;20129;-71
2022/07/08 08:22:56;;;;;;;2.17;1.10;;;12.10;93.00;;;;;;5006497;28;20026;-75
2022/07/08 08:25:24;;;;;;;2.03;1.00;;;12.20;93.10;;;;;;5006666;28;20026;-69
2022/07/08 08:27:51;;;;;;;2.38;1.40;;;12.20;93.30;;;;;;5005849;28;20049;-74
2022/07/08 08:30:18;;;;;;;1.55;0.90;;;12.10;93.60;;;;;;5006778;28;20018;-67
2022/07/08 08:32:46;;;;;;;2.92;1.20;;;12.00;93.60;;;;;;5006256;28;20463;-73
2022/07/08 08:35:13;;;;;;;2.13;1.23;;;12.00;93.50;;;;;;5006414;28;20533;-74
2022/07/08 08:37:41;;;;;;;3.30;2.70;;;12.00;93.70;;;;;;5007119;28;20040;-69
2022/07/08 08:40:10;;;;;;;5.85;1.88;;;12.00;93.50;;;;;;5005258;28;20499;-65
2022/07/08 08:42:38;;;;;;;2.70;1.50;;;12.00;93.70;;;;;;5006197;28;20026;-71
2022/07/08 08:45:06;;;;;;;2.83;1.50;;;12.00;93.90;;;;;;5006540;28;20030;-64
2022/07/08 08:47:36;;;;;;;3.78;1.80;;;12.00;93.70;;;;;;5006776;28;20025;-65
2022/07/08 08:52:53;;;;;;;3.05;1.38;;;12.00;93.70;;;;;;5006445;28;20053;-75
2022/07/08 08:55:33;;;;;;;2.78;1.33;;;12.00;93.80;;;;;;5006132;28;20049;-67
2022/07/08 08:58:05;;;;;;;2.45;1.55;;;12.00;93.80;;;;;;5015172;28;20045;-69
2022/07/08 09:00:34;;;;;;;3.45;1.83;;;12.00;94.00;;;;;;5025836;28;20056;-70
2022/07/08 09:03:02;;;;;;;2.45;1.10;;;11.90;94.20;;;;;;5015648;28;20393;-68
2022/07/08 09:05:32;;;;;;;5.38;1.50;;;11.80;94.30;;;;;;5009455;28;20108;-67
2022/07/08 09:07:59;;;;;;;4.70;3.08;;;11.80;94.20;;;;;;5024645;28;20025;-68
2022/07/08 09:10:27;;;;;;;4.25;2.08;;;11.80;94.30;;;;;;5025023;28;20042;-66
2022/07/08 09:13:01;;;;;;;4.82;1.40;;;11.80;94.30;;;;;;5025247;28;20036;-64
2022/07/08 09:15:36;;;;;;;3.63;1.23;;;11.80;94.30;;;;;;5007695;28;20022;-70
2022/07/08 09:18:07;;;;;;;3.60;1.70;;;11.80;94.50;;;;;;5005123;28;20398;-69
2022/07/08 09:20:41;;;;;;;7.32;1.67;;;11.70;94.60;;;;;;5012070;28;20100;-71
2022/07/08 09:23:15;;;;;;;3.17;1.67;;;11.70;94.60;;;;;;5025206;28;20049;-64
2022/07/08 09:25:45;;;;;;;3.70;1.30;;;11.70;94.80;;;;;;5005847;28;20049;-70
2022/07/08 09:28:12;;;;;;;2.05;1.35;;;11.70;94.70;;;;;;5036302;28;20026;-66
2022/07/08 09:30:42;;;;;;;2.20;1.23;;;11.60;95.00;;;;;;5011414;28;20374;-64
2022/07/08 09:33:12;;;;;;;6.32;4.40;;;11.60;94.90;;;;;;5025094;28;20025;-67
2022/07/08 09:35:42;;;;;;;3.75;2.10;;;11.60;94.90;;;;;;5006785;28;20022;-70
2022/07/08 09:38:10;;;;;;;3.58;1.67;;;11.60;95.10;;;;;;5003469;28;20037;-71
2022/07/08 09:40:38;;;;;;;4.13;1.45;;;11.50;95.00;;;;;;5005157;28;20068;-66
2022/07/08 09:43:15;;;;;;;3.55;1.50;;;11.50;95.10;;;;;;5015364;28;20053;-68
2022/07/08 09:45:42;;;;;;;3.63;1.63;;;11.60;95.10;;;;;;5018362;28;20026;-68
2022/07/08 09:48:10;;;;;;;3.90;1.83;;;11.50;95.20;;;;;;5025061;28;20100;-65
2022/07/08 09:50:44;;;;;;;4.05;1.63;;;11.50;95.20;;;;;;5025743;28;20032;-70
2022/07/08 09:53:27;;;;;;;3.42;2.58;;;11.50;95.20;;;;;;5022415;28;20016;-63
2022/07/08 09:55:58;;;;;;;3.95;1.67;;;11.60;95.30;;;;;;5012081;28;20164;-67
2022/07/08 09:58:30;;;;;;;4.07;1.90;;;11.50;95.30;;;;;;5019978;28;20034;-63
2022/07/08 10:01:00;;;;;;;5.90;1.67;;;11.60;95.50;;;;;;5005282;28;20036;-73
2022/07/08 10:03:29;;;;;;;3.22;1.70;;;11.50;95.50;;;;;;5021445;28;20045;-68
2022/07/08 10:05:56;;;;;;;4.07;1.98;;;11.50;95.60;;;;;;5004947;28;20105;-65
2022/07/08 10:08:24;;;;;;;3.25;1.58;;;11.40;95.50;;;;;;5003968;28;20819;-68
2022/07/08 10:10:53;;;;;;;4.20;1.85;;;11.40;95.70;;;;;;5004453;28;20022;-67
2022/07/08 10:13:23;;;;;;;3.95;1.65;;;11.40;95.90;;;;;;5004494;28;20026;-64
2022/07/08 10:15:57;;;;;;;2.53;1.63;;;11.30;96.00;;;;;;5005002;28;20018;-65
2022/07/08 10:18:51;;;;;;;3.25;1.65;;;11.30;96.00;;;;;;5023595;28;20087;-67
2022/07/08 10:21:23;;;;;;;3.85;2.50;;;11.30;96.10;;;;;;5023717;28;20021;-63
2022/07/08 10:23:55;;;;;;;6.72;2.58;;;11.20;96.20;;;;;;5020333;28;20048;-64
2022/07/08 10:26:27;;;;;;;2.73;1.90;;;11.20;96.40;;;;;;5004789;28;20025;-64
2022/07/08 10:29:20;;;;;;;;;;;11.10;96.40;;;;;;5004907;28;20113;-65
2022/07/08 10:31:53;;;;;;;3.78;2.38;;;11.10;96.60;;;;;;5003766;28;19906;-64
2022/07/08 10:34:28;;;;;;;7.68;3.22;;;11.10;96.80;;;;;;5004504;28;20022;-65
2022/07/08 10:36:55;;;;;;;5.30;1.98;;;11.00;96.90;;;;;;5004481;28;20108;-65
2022/07/08 10:39:27;;;;;;;4.75;2.28;;;11.00;97.10;;;;;;5003854;28;20030;-69
2022/07/08 10:42:04;;;;;;;3.80;2.20;;;11.00;97.00;;;;;;5004580;28;20477;-68
2022/07/08 10:44:46;;;;;;;4.93;2.63;;;10.90;97.20;;;;;;5004068;28;20442;-73
2022/07/08 10:47:15;;;;;;;5.67;2.20;;;10.90;97.30;;;;;;5002119;28;20038;-66
2022/07/08 10:49:47;;;;;;;5.30;2.13;;;10.90;97.50;;;;;;5004024;28;20266;-67
2022/07/08 10:52:17;;;;;;;3.58;1.85;;;10.90;97.40;;;;;;5003770;28;20498;-66
2022/07/08 10:54:44;;;;;;;2.97;1.98;;;10.80;97.40;;;;;;5011691;28;20117;-65
2022/07/08 10:57:17;;;;;;;4.38;1.60;;;10.90;97.50;;;;;;5012650;28;20068;-64
2022/07/08 11:00:06;;;;;;;5.32;1.83;;;10.80;97.40;;;;;;5004178;28;20038;-65
2022/07/08 11:02:38;;;;;;;2.30;1.42;;;10.90;97.40;;;;;;4984134;28;20027;-65
2022/07/08 11:05:06;;;;;;;2.38;1.45;;;10.90;97.40;;;;;;4988360;28;20030;-65
2022/07/08 11:07:34;;;;;;;4.93;2.95;;;10.80;97.40;;;;;;5006406;28;20022;-66
2022/07/08 11:10:10;;;;;;;3.47;2.03;;;10.80;97.50;;;;;;5008041;28;20026;-66
2022/07/08 11:12:39;;;;;;;3.50;1.55;;;10.80;97.50;;;;;;5007660;28;20045;-66
2022/07/08 11:15:16;;;;;;;2.78;1.60;;;10.80;97.60;;;;;;5007834;28;20896;-71
2022/07/08 11:17:54;;;;;;;6.00;2.20;;;10.80;97.70;;;;;;5012498;28;20030;-67
2022/07/08 11:20:21;;;;;;;4.60;2.17;;;10.70;97.80;;;;;;5007340;28;20555;-64
2022/07/08 11:22:49;;;;;;;2.45;1.70;;;10.70;98.00;;;;;;5016165;28;20057;-64
2022/07/08 11:25:18;;;;;;;4.10;2.67;;;10.70;98.00;;;;;;5012145;28;20033;-69
2022/07/08 11:27:46;;;;;;;3.20;1.73;;;10.60;98.50;;;;;;5008081;28;20022;-67
2022/07/08 11:30:17;;;;;;;4.32;2.33;;;10.60;98.40;;;;;;5010087;28;20045;-66
2022/07/08 11:32:49;;;;;;;5.72;2.55;;;10.60;98.60;;;;;;5021024;28;20496;-72
2022/07/08 11:35:19;;;;;;;3.53;2.67;;;10.50;98.60;;;;;;5005970;28;20254;-67
2022/07/08 11:37:47;;;;;;;4.75;2.30;;;10.50;98.60;;;;;;5005998;28;20041;-75
2022/07/08 11:40:18;;;;;;;3.80;2.10;;;10.50;98.80;;;;;;5006613;28;20034;-71
2022/07/08 11:42:45;;;;;;;4.35;2.10;;;10.40;98.50;;;;;;5006114;28;20022;-67
2022/07/08 11:45:13;;;;;;;6.88;3.55;;;10.40;98.60;;;;;;5006319;28;20037;-71
2022/07/08 11:47:40;;;;;;;3.78;2.40;;;10.40;98.90;;;;;;5014293;28;20490;-67
2022/07/08 11:50:11;;;;;;;3.78;2.40;;;10.40;98.70;;;;;;5005564;28;20493;-66
2022/07/08 11:52:39;;;;;;;3.17;1.90;;;10.40;98.70;;;;;;5004920;28;20041;-69
2022/07/08 11:55:09;;;;;;;4.22;2.00;;;10.40;98.80;;;;;;5006053;28;20029;-75
2022/07/08 11:57:42;;;;;;;4.05;2.05;;;10.30;98.80;;;;;;5006727;28;20445;-67
2022/07/08 12:00:10;;;;;;;3.97;2.40;;;10.40;99.10;;;;;;5007237;28;20038;-71
2022/07/08 12:02:37;;;;;;;3.55;2.53;;;10.30;99.00;;;;;;5006909;28;20021;-76
2022/07/08 12:05:09;;;;;;;5.72;2.28;;;10.30;99.10;;;;;;5006924;28;20109;-68
2022/07/08 12:07:38;;;;;;;3.75;1.90;;;10.30;99.10;;;;;;5017057;28;20021;-66
2022/07/08 12:10:06;;;;;;;3.47;2.15;;;10.20;99.10;;;;;;5010531;28;20140;-69
2022/07/08 12:12:35;;;;;;;3.60;1.77;;;10.20;99.30;;;;;;5003034;28;20366;-69
2022/07/08 12:15:14;;;;;;;5.05;2.78;;;10.20;99.30;;;;;;5004421;28;20049;-72
2022/07/08 12:17:41;;;;;;;3.10;1.75;;;10.20;99.50;;;;;;5003634;28;20025;-69
2022/07/08 12:20:09;;;;;;;4.00;2.08;;;10.20;99.40;;;;;;5005520;28;20034;-64
2022/07/08 12:22:50;;;;;;;4.63;2.03;;;10.10;99.40;;;;;;5005769;28;20014;-70
2022/07/08 12:25:19;;;;;;;3.10;2.03;;;10.20;99.40;;;;;;5005017;28;20473;-64
2022/07/08 12:28:02;;;;;;;3.50;1.77;;;10.20;99.70;;;;;;5004527;28;20851;-65
2022/07/08 12:30:29;;;;;;;;;;;10.10;99.40;;;;;;5004418;28;20661;-68
2022/07/08 12:33:02;;;;;;;3.30;1.42;;;10.10;99.40;;;;;;5005383;28;19909;-67
2022/07/08 12:35:33;;;;;;;3.42;1.48;;;10.20;99.30;;;;;;5005326;28;20018;-65
2022/07/08 12:38:07;;;;;;;3.25;1.40;;;10.20;99.30;;;;;;5007182;28;20686;-67
2022/07/08 12:40:42;;;;;;;2.17;1.35;;;10.20;99.20;;;;;;5003283;28;20041;-68
2022/07/08 12:43:11;;;;;;;3.78;1.20;;;10.30;99.20;;;;;;5002847;28;20064;-78
2022/07/08 12:45:39;;;;;;;1.67;1.27;;;10.20;99.20;;;;;;5002665;28;20053;-67
2022/07/08 12:48:07;;;;;;;4.70;1.48;;;10.30;99.60;;;;;;5001501;28;20444;-63
2022/07/08 12:50:35;;;;;;;3.67;1.55;;;10.30;99.10;;;;;;5001710;28;20030;-64
2022/07/08 12:53:03;;;;;;;2.80;1.30;;;10.40;99.10;;;;;;5001233;28;20018;-64
2022/07/08 12:55:31;;;;;;;5.30;2.22;;;10.40;99.10;;;;;;5000348;28;20386;-64
2022/07/08 12:57:58;;;;;;;4.03;1.63;;;10.30;99.10;;;;;;5003459;28;20065;-64
2022/07/08 13:00:25;;;;;;;3.22;1.30;;;10.40;99.30;;;;;;5003200;28;20101;-65
2022/07/08 13:02:53;;;;;;;5.43;1.88;;;10.40;99.30;;;;;;5001488;28;20437;-64